sensor_id;sensor_type;location;lat;lon;timestamp;pressure;altitude;pressure_sealevel;temperature;humidity
9969;BME280;5025;48.890;9.278;2023-05-12T00:00:59;98493.66;;;12.35;87.02
9969;BME280;5025;48.890;9.278;2023-05-12T00:03:24;98499.81;;;12.30;87.02
9969;BME280;5025;48.890;9.278;2023-05-12T00:05:49;98497.59;;;12.27;87.00
9969;BME280;5025;48.890;9.278;2023-05-12T00:08:15;98499.72;;;12.25;87.06
9969;BME280;5025;48.890;9.278;2023-05-12T00:10:40;98499.94;;;12.24;87.08
9969;BME280;5025;48.890;9.278;2023-05-12T00:13:07;98493.16;;;12.21;87.14
9969;BME280;5025;48.890;9.278;2023-05-12T00:15:32;98493.66;;;12.18;87.14
9969;BME280;5025;48.890;9.278;2023-05-12T00:17:58;98487.66;;;12.16;87.34
9969;BME280;5025;48.890;9.278;2023-05-12T00:20:23;98486.28;;;12.13;87.33
9969;BME280;5025;48.890;9.278;2023-05-12T00:22:48;98482.72;;;12.13;87.46
9969;BME280;5025;48.890;9.278;2023-05-12T00:25:13;98479.22;;;12.12;87.54
9969;BME280;5025;48.890;9.278;2023-05-12T00:27:39;98482.41;;;12.09;87.55
9969;BME280;5025;48.890;9.278;2023-05-12T00:30:05;98488.88;;;12.08;87.36
9969;BME280;5025;48.890;9.278;2023-05-12T00:32:31;98487.50;;;12.06;87.52
9969;BME280;5025;48.890;9.278;2023-05-12T00:34:56;98483.41;;;12.03;87.55
9969;BME280;5025;48.890;9.278;2023-05-12T00:37:22;98480.63;;;11.98;87.45
9969;BME280;5025;48.890;9.278;2023-05-12T00:39:47;98482.97;;;11.94;87.31
9969;BME280;5025;48.890;9.278;2023-05-12T00:42:12;98474.28;;;11.92;87.37
9969;BME280;5025;48.890;9.278;2023-05-12T00:44:37;98480.97;;;11.90;87.49
9969;BME280;5025;48.890;9.278;2023-05-12T00:47:03;98484.75;;;11.89;87.42
9969;BME280;5025;48.890;9.278;2023-05-12T00:49:30;98477.69;;;11.88;87.70
9969;BME280;5025;48.890;9.278;2023-05-12T00:51:57;98476.03;;;11.87;87.63
9969;BME280;5025;48.890;9.278;2023-05-12T00:54:24;98483.59;;;11.84;87.42
9969;BME280;5025;48.890;9.278;2023-05-12T00:56:50;98475.72;;;11.83;87.45
9969;BME280;5025;48.890;9.278;2023-05-12T00:59:15;98480.56;;;11.81;87.55
9969;BME280;5025;48.890;9.278;2023-05-12T01:01:41;98477.28;;;11.79;87.43
9969;BME280;5025;48.890;9.278;2023-05-12T01:04:06;98488.59;;;11.76;87.51
9969;BME280;5025;48.890;9.278;2023-05-12T01:06:39;98482.34;;;11.75;87.65
9969;BME280;5025;48.890;9.278;2023-05-12T01:09:07;98481.53;;;11.75;87.62
9969;BME280;5025;48.890;9.278;2023-05-12T01:11:33;98483.44;;;11.74;87.79
9969;BME280;5025;48.890;9.278;2023-05-12T01:13:58;98483.44;;;11.74;87.86
9969;BME280;5025;48.890;9.278;2023-05-12T01:16:27;98484.25;;;11.75;87.89
9969;BME280;5025;48.890;9.278;2023-05-12T01:18:54;98487.19;;;11.73;87.64
9969;BME280;5025;48.890;9.278;2023-05-12T01:21:20;98481.47;;;11.70;87.92
9969;BME280;5025;48.890;9.278;2023-05-12T01:23:50;98478.16;;;11.68;87.86
9969;BME280;5025;48.890;9.278;2023-05-12T01:26:17;98486.88;;;11.70;88.08
9969;BME280;5025;48.890;9.278;2023-05-12T01:28:43;98472.75;;;11.68;88.02
9969;BME280;5025;48.890;9.278;2023-05-12T01:31:09;98477.34;;;11.67;88.10
9969;BME280;5025;48.890;9.278;2023-05-12T01:33:35;98474.88;;;11.65;88.08
9969;BME280;5025;48.890;9.278;2023-05-12T01:36:00;98473.25;;;11.64;88.20
9969;BME280;5025;48.890;9.278;2023-05-12T01:38:26;98475.13;;;11.64;88.31
9969;BME280;5025;48.890;9.278;2023-05-12T01:40:51;98471.63;;;11.63;88.23
9969;BME280;5025;48.890;9.278;2023-05-12T01:43:16;98472.44;;;11.64;88.33
9969;BME280;5025;48.890;9.278;2023-05-12T01:45:42;98478.66;;;11.64;88.50
9969;BME280;5025;48.890;9.278;2023-05-12T01:48:07;98475.94;;;11.64;88.48
9969;BME280;5025;48.890;9.278;2023-05-12T01:50:32;98476.19;;;11.63;88.73
9969;BME280;5025;48.890;9.278;2023-05-12T01:52:58;98478.06;;;11.62;88.66
9969;BME280;5025;48.890;9.278;2023-05-12T01:55:23;98480.47;;;11.59;88.75
9969;BME280;5025;48.890;9.278;2023-05-12T01:57:48;98478.00;;;11.57;88.86
9969;BME280;5025;48.890;9.278;2023-05-12T02:00:14;98480.94;;;11.56;89.08
9969;BME280;5025;48.890;9.278;2023-05-12T02:02:39;98479.06;;;11.56;89.27
9969;BME280;5025;48.890;9.278;2023-05-12T02:05:04;98483.06;;;11.54;89.19
9969;BME280;5025;48.890;9.278;2023-05-12T02:07:30;98474.69;;;11.55;89.33
9969;BME280;5025;48.890;9.278;2023-05-12T02:09:55;98478.81;;;11.58;89.27
9969;BME280;5025;48.890;9.278;2023-05-12T02:12:21;98482.31;;;11.58;89.36
9969;BME280;5025;48.890;9.278;2023-05-12T02:14:46;98476.09;;;11.58;89.52
9969;BME280;5025;48.890;9.278;2023-05-12T02:17:11;98479.13;;;11.61;89.46
9969;BME280;5025;48.890;9.278;2023-05-12T02:19:37;98473.97;;;11.60;89.78
9969;BME280;5025;48.890;9.278;2023-05-12T02:22:02;98471.25;;;11.60;89.66
9969;BME280;5025;48.890;9.278;2023-05-12T02:24:27;98468.56;;;11.60;89.85
9969;BME280;5025;48.890;9.278;2023-05-12T02:26:53;98478.06;;;11.62;89.78
9969;BME280;5025;48.890;9.278;2023-05-12T02:29:18;98476.66;;;11.60;89.88
9969;BME280;5025;48.890;9.278;2023-05-12T02:31:43;98477.16;;;11.57;90.14
9969;BME280;5025;48.890;9.278;2023-05-12T02:34:08;98479.63;;;11.58;90.13
9969;BME280;5025;48.890;9.278;2023-05-12T02:36:33;98473.88;;;11.55;90.18
9969;BME280;5025;48.890;9.278;2023-05-12T02:38:59;98473.88;;;11.55;90.49
9969;BME280;5025;48.890;9.278;2023-05-12T02:41:24;98475.28;;;11.57;90.57
9969;BME280;5025;48.890;9.278;2023-05-12T02:43:49;98475.63;;;11.61;90.55
9969;BME280;5025;48.890;9.278;2023-05-12T02:46:15;98472.09;;;11.60;90.65
9969;BME280;5025;48.890;9.278;2023-05-12T02:48:40;98477.50;;;11.60;90.55
9969;BME280;5025;48.890;9.278;2023-05-12T02:51:05;98478.31;;;11.61;90.60
9969;BME280;5025;48.890;9.278;2023-05-12T02:53:30;98469.97;;;11.62;90.61
9969;BME280;5025;48.890;9.278;2023-05-12T02:55:56;98464.00;;;11.60;90.53
9969;BME280;5025;48.890;9.278;2023-05-12T02:58:21;98468.81;;;11.58;90.58
9969;BME280;5025;48.890;9.278;2023-05-12T03:00:47;98472.59;;;11.57;90.65
9969;BME280;5025;48.890;9.278;2023-05-12T03:03:12;98470.13;;;11.56;90.88
9969;BME280;5025;48.890;9.278;2023-05-12T03:05:37;98463.31;;;11.53;91.00
9969;BME280;5025;48.890;9.278;2023-05-12T03:08:03;98469.03;;;11.57;90.85
9969;BME280;5025;48.890;9.278;2023-05-12T03:10:29;98472.59;;;11.57;90.88
9969;BME280;5025;48.890;9.278;2023-05-12T03:12:54;98471.19;;;11.55;91.13
9969;BME280;5025;48.890;9.278;2023-05-12T03:15:19;98475.78;;;11.54;91.18
9969;BME280;5025;48.890;9.278;2023-05-12T03:17:44;98475.19;;;11.52;91.05
9969;BME280;5025;48.890;9.278;2023-05-12T03:20:10;98480.03;;;11.50;91.06
9969;BME280;5025;48.890;9.278;2023-05-12T03:22:36;98477.56;;;11.48;90.99
9969;BME280;5025;48.890;9.278;2023-05-12T03:25:01;98468.28;;;11.44;91.25
9969;BME280;5025;48.890;9.278;2023-05-12T03:27:32;98484.75;;;11.43;91.20
9969;BME280;5025;48.890;9.278;2023-05-12T03:29:57;98480.41;;;11.42;91.48
9969;BME280;5025;48.890;9.278;2023-05-12T03:32:25;98479.34;;;11.43;91.35
9969;BME280;5025;48.890;9.278;2023-05-12T03:34:50;98478.28;;;11.44;91.36
9969;BME280;5025;48.890;9.278;2023-05-12T03:37:15;98478.28;;;11.44;91.60
9969;BME280;5025;48.890;9.278;2023-05-12T03:39:41;98476.16;;;11.46;91.45
9969;BME280;5025;48.890;9.278;2023-05-12T03:42:06;98479.69;;;11.46;91.41
9969;BME280;5025;48.890;9.278;2023-05-12T03:44:31;98476.75;;;11.48;91.45
9969;BME280;5025;48.890;9.278;2023-05-12T03:46:56;98475.66;;;11.49;91.64
9969;BME280;5025;48.890;9.278;2023-05-12T03:49:22;98475.66;;;11.49;91.72
9969;BME280;5025;48.890;9.278;2023-05-12T03:51:47;98473.56;;;11.51;91.37
9969;BME280;5025;48.890;9.278;2023-05-12T03:54:12;98478.97;;;11.51;91.45
9969;BME280;5025;48.890;9.278;2023-05-12T03:56:37;98469.44;;;11.48;91.37
9969;BME280;5025;48.890;9.278;2023-05-12T03:59:03;98475.66;;;11.49;91.45
9969;BME280;5025;48.890;9.278;2023-05-12T04:01:28;98469.69;;;11.47;91.59
9969;BME280;5025;48.890;9.278;2023-05-12T04:03:53;98466.97;;;11.47;91.73
9969;BME280;5025;48.890;9.278;2023-05-12T04:06:18;98470.25;;;11.49;91.74
9969;BME280;5025;48.890;9.278;2023-05-12T04:08:44;98464.84;;;11.49;91.75
9969;BME280;5025;48.890;9.278;2023-05-12T04:11:09;98465.94;;;11.48;91.76
9969;BME280;5025;48.890;9.278;2023-05-12T04:13:34;98463.78;;;11.50;91.79
9969;BME280;5025;48.890;9.278;2023-05-12T04:16:00;98461.09;;;11.50;91.88
9969;BME280;5025;48.890;9.278;2023-05-12T04:18:26;98463.56;;;11.52;92.02
9969;BME280;5025;48.890;9.278;2023-05-12T04:20:52;98458.94;;;11.52;91.95
9969;BME280;5025;48.890;9.278;2023-05-12T04:23:17;98466.81;;;11.54;92.02
9969;BME280;5025;48.890;9.278;2023-05-12T04:25:43;98466.59;;;11.55;92.08
9969;BME280;5025;48.890;9.278;2023-05-12T04:28:08;98465.53;;;11.56;92.27
9969;BME280;5025;48.890;9.278;2023-05-12T04:30:34;98463.63;;;11.57;92.14
9969;BME280;5025;48.890;9.278;2023-05-12T04:33:00;98461.78;;;11.57;92.14
9969;BME280;5025;48.890;9.278;2023-05-12T04:35:26;98467.19;;;11.57;92.22
9969;BME280;5025;48.890;9.278;2023-05-12T04:37:51;98474.44;;;11.57;92.17
9969;BME280;5025;48.890;9.278;2023-05-12T04:40:16;98484.47;;;11.56;92.52
9969;BME280;5025;48.890;9.278;2023-05-12T04:42:42;98487.16;;;11.56;92.45
9969;BME280;5025;48.890;9.278;2023-05-12T04:45:07;98485.28;;;11.57;92.17
9969;BME280;5025;48.890;9.278;2023-05-12T04:47:33;98488.81;;;11.57;92.42
9969;BME280;5025;48.890;9.278;2023-05-12T04:49:58;98484.22;;;11.58;92.45
9969;BME280;5025;48.890;9.278;2023-05-12T04:52:23;98493.75;;;11.60;92.38
9969;BME280;5025;48.890;9.278;2023-05-12T04:54:49;98491.03;;;11.60;92.58
9969;BME280;5025;48.890;9.278;2023-05-12T04:57:15;98502.41;;;11.62;92.67
9969;BME280;5025;48.890;9.278;2023-05-12T04:59:40;98489.47;;;11.64;92.66
9969;BME280;5025;48.890;9.278;2023-05-12T05:02:07;98494.38;;;11.68;92.53
9969;BME280;5025;48.890;9.278;2023-05-12T05:04:32;98501.44;;;11.69;92.70
9969;BME280;5025;48.890;9.278;2023-05-12T05:06:58;98504.72;;;11.71;92.67
9969;BME280;5025;48.890;9.278;2023-05-12T05:09:23;98504.72;;;11.71;92.49
9969;BME280;5025;48.890;9.278;2023-05-12T05:11:48;98492.28;;;11.70;92.59
9969;BME280;5025;48.890;9.278;2023-05-12T05:14:14;98500.97;;;11.72;92.43
9969;BME280;5025;48.890;9.278;2023-05-12T05:16:39;98505.06;;;11.74;92.67
9969;BME280;5025;48.890;9.278;2023-05-12T05:19:05;98494.75;;;11.71;92.72
9969;BME280;5025;48.890;9.278;2023-05-12T05:21:30;98495.06;;;11.75;92.80
9969;BME280;5025;48.890;9.278;2023-05-12T05:23:56;98499.91;;;11.73;92.71
9969;BME280;5025;48.890;9.278;2023-05-12T05:26:21;98503.75;;;11.77;92.94
9969;BME280;5025;48.890;9.278;2023-05-12T05:28:47;98500.00;;;11.78;92.83
9969;BME280;5025;48.890;9.278;2023-05-12T05:31:15;98507.63;;;11.81;92.98
9969;BME280;5025;48.890;9.278;2023-05-12T05:33:41;98503.25;;;11.80;92.89
9969;BME280;5025;48.890;9.278;2023-05-12T05:36:06;98509.28;;;11.82;92.98
9969;BME280;5025;48.890;9.278;2023-05-12T05:38:32;98509.28;;;11.82;92.85
9969;BME280;5025;48.890;9.278;2023-05-12T05:40:57;98511.97;;;11.82;92.98
9969;BME280;5025;48.890;9.278;2023-05-12T05:43:22;98510.31;;;11.81;93.00
9969;BME280;5025;48.890;9.278;2023-05-12T05:45:48;98509.50;;;11.80;93.00
9969;BME280;5025;48.890;9.278;2023-05-12T05:48:13;98513.03;;;11.81;93.04
9969;BME280;5025;48.890;9.278;2023-05-12T05:50:39;98516.91;;;11.85;93.10
9969;BME280;5025;48.890;9.278;2023-05-12T05:53:04;98514.75;;;11.87;92.97
9969;BME280;5025;48.890;9.278;2023-05-12T05:55:30;98518.03;;;11.89;93.09
9969;BME280;5025;48.890;9.278;2023-05-12T05:57:56;98512.16;;;11.92;92.88
9969;BME280;5025;48.890;9.278;2023-05-12T06:00:21;98509.22;;;11.94;93.04
9969;BME280;5025;48.890;9.278;2023-05-12T06:02:46;98515.19;;;11.96;92.92
9969;BME280;5025;48.890;9.278;2023-05-12T06:05:11;98515.44;;;11.94;93.13
9969;BME280;5025;48.890;9.278;2023-05-12T06:07:37;98509.22;;;11.94;93.00
9969;BME280;5025;48.890;9.278;2023-05-12T06:10:02;98516.53;;;11.93;93.06
9969;BME280;5025;48.890;9.278;2023-05-12T06:12:29;98527.34;;;11.93;92.91
9969;BME280;5025;48.890;9.278;2023-05-12T06:14:54;98519.44;;;11.92;92.97
9969;BME280;5025;48.890;9.278;2023-05-12T06:17:19;98521.09;;;11.93;93.11
9969;BME280;5025;48.890;9.278;2023-05-12T06:19:45;98528.84;;;11.89;93.05
9969;BME280;5025;48.890;9.278;2023-05-12T06:22:13;98529.66;;;11.90;93.45
9969;BME280;5025;48.890;9.278;2023-05-12T06:24:39;98533.47;;;11.89;93.16
9969;BME280;5025;48.890;9.278;2023-05-12T06:27:05;98525.84;;;11.86;93.36
9969;BME280;5025;48.890;9.278;2023-05-12T06:29:30;98529.34;;;11.86;93.32
9969;BME280;5025;48.890;9.278;2023-05-12T06:31:55;98531.56;;;11.89;93.41
9969;BME280;5025;48.890;9.278;2023-05-12T06:34:21;98541.69;;;11.94;93.18
9969;BME280;5025;48.890;9.278;2023-05-12T06:36:46;98540.16;;;11.98;93.00
9969;BME280;5025;48.890;9.278;2023-05-12T06:39:11;98542.00;;;11.97;93.23
9969;BME280;5025;48.890;9.278;2023-05-12T06:41:36;98537.19;;;11.99;93.31
9969;BME280;5025;48.890;9.278;2023-05-12T06:44:02;98546.94;;;12.00;93.02
9969;BME280;5025;48.890;9.278;2023-05-12T06:46:27;98536.59;;;11.97;93.25
9969;BME280;5025;48.890;9.278;2023-05-12T06:48:52;98541.44;;;11.95;93.16
9969;BME280;5025;48.890;9.278;2023-05-12T06:51:19;98535.22;;;11.95;93.49
9969;BME280;5025;48.890;9.278;2023-05-12T06:53:45;98541.53;;;12.00;93.42
9969;BME280;5025;48.890;9.278;2023-05-12T06:56:10;98544.34;;;12.06;93.35
9969;BME280;5025;48.890;9.278;2023-05-12T06:58:37;98538.44;;;12.09;93.03
9969;BME280;5025;48.890;9.278;2023-05-12T07:01:02;98543.63;;;12.10;93.48
9969;BME280;5025;48.890;9.278;2023-05-12T07:03:30;98544.50;;;12.16;93.39
9969;BME280;5025;48.890;9.278;2023-05-12T07:05:56;98542.72;;;12.22;93.24
9969;BME280;5025;48.890;9.278;2023-05-12T07:08:21;98544.69;;;12.26;93.51
9969;BME280;5025;48.890;9.278;2023-05-12T07:10:46;98543.69;;;12.32;93.49
9969;BME280;5025;48.890;9.278;2023-05-12T07:13:11;98542.16;;;12.36;93.53
9969;BME280;5025;48.890;9.278;2023-05-12T07:15:37;98541.41;;;12.41;93.43
9969;BME280;5025;48.890;9.278;2023-05-12T07:18:02;98543.13;;;12.47;93.37
9969;BME280;5025;48.890;9.278;2023-05-12T07:20:27;98546.16;;;12.51;93.49
9969;BME280;5025;48.890;9.278;2023-05-12T07:22:53;98543.50;;;12.56;93.50
9969;BME280;5025;48.890;9.278;2023-05-12T07:25:19;98534.66;;;12.61;93.46
9969;BME280;5025;48.890;9.278;2023-05-12T07:27:44;98535.56;;;12.66;93.38
9969;BME280;5025;48.890;9.278;2023-05-12T07:30:10;98536.94;;;12.69;93.11
9969;BME280;5025;48.890;9.278;2023-05-12T07:32:36;98543.50;;;12.73;93.38
9969;BME280;5025;48.890;9.278;2023-05-12T07:35:01;98535.47;;;12.78;93.35
9969;BME280;5025;48.890;9.278;2023-05-12T07:37:28;98533.31;;;12.80;93.35
9969;BME280;5025;48.890;9.278;2023-05-12T07:39:53;98536.94;;;12.86;93.36
9969;BME280;5025;48.890;9.278;2023-05-12T07:42:18;98531.00;;;12.89;93.13
9969;BME280;5025;48.890;9.278;2023-05-12T07:44:44;98528.91;;;12.96;93.00
9969;BME280;5025;48.890;9.278;2023-05-12T07:47:09;98531.13;;;12.99;93.28
9969;BME280;5025;48.890;9.278;2023-05-12T07:49:34;98530.13;;;13.05;93.17
9969;BME280;5025;48.890;9.278;2023-05-12T07:52:00;98535.13;;;13.14;93.19
9969;BME280;5025;48.890;9.278;2023-05-12T07:54:25;98531.97;;;13.22;92.87
9969;BME280;5025;48.890;9.278;2023-05-12T07:56:50;98525.53;;;13.28;92.92
9969;BME280;5025;48.890;9.278;2023-05-12T07:59:15;98534.31;;;13.35;92.86
9969;BME280;5025;48.890;9.278;2023-05-12T08:01:41;98522.78;;;13.45;92.60
9969;BME280;5025;48.890;9.278;2023-05-12T08:04:07;98531.28;;;13.54;92.64
9969;BME280;5025;48.890;9.278;2023-05-12T08:06:32;98521.84;;;13.61;92.35
9969;BME280;5025;48.890;9.278;2023-05-12T08:08:58;98525.50;;;13.72;92.20
9969;BME280;5025;48.890;9.278;2023-05-12T08:11:26;98534.25;;;13.79;92.05
9969;BME280;5025;48.890;9.278;2023-05-12T08:13:51;98524.84;;;13.87;91.95
9969;BME280;5025;48.890;9.278;2023-05-12T08:16:17;98530.38;;;13.97;91.83
9969;BME280;5025;48.890;9.278;2023-05-12T08:18:42;98529.34;;;14.04;91.57
9969;BME280;5025;48.890;9.278;2023-05-12T08:21:08;98529.66;;;14.07;91.27
9969;BME280;5025;48.890;9.278;2023-05-12T08:23:33;98526.66;;;14.09;91.26
9969;BME280;5025;48.890;9.278;2023-05-12T08:26:01;98521.78;;;14.11;91.25
9969;BME280;5025;48.890;9.278;2023-05-12T08:28:26;98521.59;;;14.18;90.74
9969;BME280;5025;48.890;9.278;2023-05-12T08:30:52;98525.94;;;14.19;90.67
9969;BME280;5025;48.890;9.278;2023-05-12T08:33:17;98517.53;;;14.20;90.56
9969;BME280;5025;48.890;9.278;2023-05-12T08:35:42;98521.91;;;14.26;90.37
9969;BME280;5025;48.890;9.278;2023-05-12T08:38:07;98524.19;;;14.34;90.28
9969;BME280;5025;48.890;9.278;2023-05-12T08:40:43;98524.22;;;14.45;89.56
9969;BME280;5025;48.890;9.278;2023-05-12T08:43:22;98522.38;;;14.50;89.41
9969;BME280;5025;48.890;9.278;2023-05-12T08:45:49;98533.03;;;14.57;89.18
9969;BME280;5025;48.890;9.278;2023-05-12T08:48:16;98530.34;;;14.62;88.88
9969;BME280;5025;48.890;9.278;2023-05-12T08:50:43;98531.75;;;14.65;88.48
9969;BME280;5025;48.890;9.278;2023-05-12T08:53:12;98532.56;;;14.65;88.16
9969;BME280;5025;48.890;9.278;2023-05-12T08:55:40;98537.69;;;14.62;88.16
9969;BME280;5025;48.890;9.278;2023-05-12T08:58:06;98543.09;;;14.57;88.01
9969;BME280;5025;48.890;9.278;2023-05-12T09:00:34;98531.63;;;14.55;87.71
9969;BME280;5025;48.890;9.278;2023-05-12T09:03:01;98536.53;;;14.58;87.55
9969;BME280;5025;48.890;9.278;2023-05-12T09:05:29;98541.53;;;14.66;87.34
9969;BME280;5025;48.890;9.278;2023-05-12T09:07:56;98536.41;;;14.69;86.87
9969;BME280;5025;48.890;9.278;2023-05-12T09:10:23;98528.78;;;14.72;86.42
9969;BME280;5025;48.890;9.278;2023-05-12T09:12:50;98525.81;;;14.73;86.18
9969;BME280;5025;48.890;9.278;2023-05-12T09:15:26;98530.19;;;14.79;85.76
9969;BME280;5025;48.890;9.278;2023-05-12T09:17:51;98537.31;;;14.85;85.29
9969;BME280;5025;48.890;9.278;2023-05-12T09:20:17;98534.31;;;14.87;84.77
9969;BME280;5025;48.890;9.278;2023-05-12T09:22:43;98533.78;;;14.90;84.53
9969;BME280;5025;48.890;9.278;2023-05-12T09:25:19;98530.53;;;14.88;83.69
9969;BME280;5025;48.890;9.278;2023-05-12T09:27:46;98522.63;;;14.86;83.37
9969;BME280;5025;48.890;9.278;2023-05-12T09:30:12;98525.34;;;14.86;83.02
9969;BME280;5025;48.890;9.278;2023-05-12T09:32:37;98529.47;;;14.89;82.73
9969;BME280;5025;48.890;9.278;2023-05-12T09:35:09;98528.41;;;14.95;82.33
9969;BME280;5025;48.890;9.278;2023-05-12T09:37:38;98527.03;;;14.98;82.07
9969;BME280;5025;48.890;9.278;2023-05-12T09:40:06;98530.84;;;14.97;81.52
9969;BME280;5025;48.890;9.278;2023-05-12T09:42:32;98530.34;;;15.05;81.30
9969;BME280;5025;48.890;9.278;2023-05-12T09:45:05;98531.47;;;15.09;81.02
9969;BME280;5025;48.890;9.278;2023-05-12T09:47:38;98535.81;;;15.10;80.92
9969;BME280;5025;48.890;9.278;2023-05-12T09:50:05;98539.63;;;15.09;80.91
9969;BME280;5025;48.890;9.278;2023-05-12T09:52:38;98535.25;;;15.08;80.79
9969;BME280;5025;48.890;9.278;2023-05-12T09:55:05;98538.50;;;15.05;80.67
9969;BME280;5025;48.890;9.278;2023-05-12T09:57:34;98545.28;;;15.02;80.63
9969;BME280;5025;48.890;9.278;2023-05-12T10:00:00;98539.84;;;15.02;80.52
9969;BME280;5025;48.890;9.278;2023-05-12T10:02:26;98537.38;;;15.01;80.37
9969;BME280;5025;48.890;9.278;2023-05-12T10:04:55;98533.31;;;14.98;80.31
9969;BME280;5025;48.890;9.278;2023-05-12T10:07:24;98537.91;;;14.98;80.17
9969;BME280;5025;48.890;9.278;2023-05-12T10:09:54;98540.38;;;14.99;79.97
9969;BME280;5025;48.890;9.278;2023-05-12T10:12:23;98541.75;;;14.97;80.09
9969;BME280;5025;48.890;9.278;2023-05-12T10:14:48;98531.38;;;14.94;80.27
9969;BME280;5025;48.890;9.278;2023-05-12T10:17:14;98533.53;;;14.92;80.21
9969;BME280;5025;48.890;9.278;2023-05-12T10:19:40;98540.88;;;14.91;80.58
9969;BME280;5025;48.890;9.278;2023-05-12T10:22:09;98546.31;;;14.91;80.65
9969;BME280;5025;48.890;9.278;2023-05-12T10:24:34;98542.22;;;14.88;80.92
9969;BME280;5025;48.890;9.278;2023-05-12T10:27:03;98543.56;;;14.86;81.02
9969;BME280;5025;48.890;9.278;2023-05-12T10:29:30;98537.03;;;14.87;81.27
9969;BME280;5025;48.890;9.278;2023-05-12T10:31:57;98536.22;;;14.86;81.19
9969;BME280;5025;48.890;9.278;2023-05-12T10:34:38;98541.13;;;14.90;81.15
9969;BME280;5025;48.890;9.278;2023-05-12T10:37:04;98538.97;;;14.92;81.14
9969;BME280;5025;48.890;9.278;2023-05-12T10:39:33;98536.81;;;14.94;81.04
9969;BME280;5025;48.890;9.278;2023-05-12T10:42:06;98547.19;;;14.97;81.13
9969;BME280;5025;48.890;9.278;2023-05-12T10:44:32;98539.56;;;14.99;81.06
9969;BME280;5025;48.890;9.278;2023-05-12T10:46:58;98538.22;;;15.01;80.92
9969;BME280;5025;48.890;9.278;2023-05-12T10:49:31;98537.38;;;15.01;80.82
9969;BME280;5025;48.890;9.278;2023-05-12T10:51:58;98540.69;;;15.03;81.01
9969;BME280;5025;48.890;9.278;2023-05-12T10:54:24;98542.81;;;15.01;80.86
9969;BME280;5025;48.890;9.278;2023-05-12T10:56:50;98535.78;;;15.00;80.95
9969;BME280;5025;48.890;9.278;2023-05-12T10:59:23;98540.94;;;15.01;80.96
9969;BME280;5025;48.890;9.278;2023-05-12T11:02:12;98546.66;;;15.00;81.16
9969;BME280;5025;48.890;9.278;2023-05-12T11:04:48;98539.31;;;15.00;81.20
9969;BME280;5025;48.890;9.278;2023-05-12T11:07:15;98539.56;;;14.99;81.42
9969;BME280;5025;48.890;9.278;2023-05-12T11:09:42;98545.81;;;14.99;81.40
9969;BME280;5025;48.890;9.278;2023-05-12T11:12:08;98555.06;;;14.98;81.48
9969;BME280;5025;48.890;9.278;2023-05-12T11:14:36;98547.19;;;14.97;81.74
9969;BME280;5025;48.890;9.278;2023-05-12T11:17:02;98547.19;;;14.97;81.88
9969;BME280;5025;48.890;9.278;2023-05-12T11:19:29;98555.06;;;14.98;81.83
9969;BME280;5025;48.890;9.278;2023-05-12T11:21:54;98543.34;;;14.98;82.01
9969;BME280;5025;48.890;9.278;2023-05-12T11:24:20;98547.19;;;14.97;82.09
9969;BME280;5025;48.890;9.278;2023-05-12T11:26:46;98550.97;;;14.96;82.21
9969;BME280;5025;48.890;9.278;2023-05-12T11:29:16;98552.03;;;14.95;82.24
9969;BME280;5025;48.890;9.278;2023-05-12T11:31:46;98561.84;;;14.96;82.28
9969;BME280;5025;48.890;9.278;2023-05-12T11:34:11;98552.31;;;14.93;82.29
9969;BME280;5025;48.890;9.278;2023-05-12T11:36:38;98550.16;;;14.95;82.51
9969;BME280;5025;48.890;9.278;2023-05-12T11:39:03;98547.19;;;14.97;82.58
9969;BME280;5025;48.890;9.278;2023-05-12T11:41:30;98547.44;;;15.00;82.67
9969;BME280;5025;48.890;9.278;2023-05-12T11:43:56;98549.38;;;15.05;82.79
9969;BME280;5025;48.890;9.278;2023-05-12T11:46:28;98547.78;;;15.09;82.71
9969;BME280;5025;48.890;9.278;2023-05-12T11:48:57;98544.00;;;15.15;82.72
9969;BME280;5025;48.890;9.278;2023-05-12T11:51:23;98544.56;;;15.22;82.64
9969;BME280;5025;48.890;9.278;2023-05-12T11:53:50;98549.25;;;15.32;82.56
9969;BME280;5025;48.890;9.278;2023-05-12T11:56:20;98541.66;;;15.39;82.43
9969;BME280;5025;48.890;9.278;2023-05-12T11:58:54;98552.56;;;15.50;82.15
9969;BME280;5025;48.890;9.278;2023-05-12T12:01:23;98549.06;;;15.59;81.90
9969;BME280;5025;48.890;9.278;2023-05-12T12:03:50;98547.50;;;15.74;81.45
9969;BME280;5025;48.890;9.278;2023-05-12T12:06:16;98559.75;;;15.82;81.05
9969;BME280;5025;48.890;9.278;2023-05-12T12:08:58;98560.88;;;15.91;80.75
9969;BME280;5025;48.890;9.278;2023-05-12T12:11:27;98561.44;;;15.98;80.38
9969;BME280;5025;48.890;9.278;2023-05-12T12:13:54;98562.25;;;15.99;80.19
9969;BME280;5025;48.890;9.278;2023-05-12T12:16:26;98561.72;;;16.02;79.93
9969;BME280;5025;48.890;9.278;2023-05-12T12:18:52;98563.91;;;16.05;79.66
9969;BME280;5025;48.890;9.278;2023-05-12T12:21:18;98573.19;;;16.09;79.29
9969;BME280;5025;48.890;9.278;2023-05-12T12:23:44;98572.09;;;16.10;79.09
9969;BME280;5025;48.890;9.278;2023-05-12T12:26:09;98568.25;;;16.11;78.95
9969;BME280;5025;48.890;9.278;2023-05-12T12:28:34;98568.00;;;16.12;78.61
9969;BME280;5025;48.890;9.278;2023-05-12T12:31:00;98560.94;;;16.11;78.31
9969;BME280;5025;48.890;9.278;2023-05-12T12:33:25;98568.84;;;16.13;77.92
9969;BME280;5025;48.890;9.278;2023-05-12T12:35:51;98564.47;;;16.17;77.86
9969;BME280;5025;48.890;9.278;2023-05-12T12:38:16;98571.28;;;16.25;77.44
9969;BME280;5025;48.890;9.278;2023-05-12T12:40:41;98568.03;;;16.33;77.18
9969;BME280;5025;48.890;9.278;2023-05-12T12:43:07;98567.22;;;16.43;77.02
9969;BME280;5025;48.890;9.278;2023-05-12T12:45:32;98568.03;;;16.54;76.60
9969;BME280;5025;48.890;9.278;2023-05-12T12:47:58;98571.56;;;16.59;76.16
9969;BME280;5025;48.890;9.278;2023-05-12T12:50:23;98567.22;;;16.58;75.80
9969;BME280;5025;48.890;9.278;2023-05-12T12:52:48;98572.91;;;16.62;75.87
9969;BME280;5025;48.890;9.278;2023-05-12T12:55:14;98573.19;;;16.60;75.54
9969;BME280;5025;48.890;9.278;2023-05-12T12:57:39;98571.31;;;16.61;75.31
9969;BME280;5025;48.890;9.278;2023-05-12T13:00:05;98570.47;;;16.55;75.28
9969;BME280;5025;48.890;9.278;2023-05-12T13:02:33;98572.66;;;16.53;74.94
9969;BME280;5025;48.890;9.278;2023-05-12T13:04:59;98568.56;;;16.51;74.85
9969;BME280;5025;48.890;9.278;2023-05-12T13:07:28;98574.56;;;16.47;74.73
9969;BME280;5025;48.890;9.278;2023-05-12T13:09:53;98569.66;;;16.44;74.69
9969;BME280;5025;48.890;9.278;2023-05-12T13:12:18;98581.66;;;16.43;74.51
9969;BME280;5025;48.890;9.278;2023-05-12T13:14:44;98579.19;;;16.37;74.46
9969;BME280;5025;48.890;9.278;2023-05-12T13:17:10;98584.66;;;16.31;74.47